Time;durP1;ratioP1;P1;durP2;ratioP2;P2;SDS_P1;SDS_P2;PMS_P1;PMS_P2;Temp;Humidity;BMP_temperature;BMP_pressure;BME280_temperature;BME280_humidity;BME280_pressure;Samples;Min_cycle;Max_cycle;Signal;HPM_P1;HPM_P2
2021/08/29 00:00:11;;;;;;;7.37;4.73;;;;;;;10.38;100.00;95964.81;1044026;28;20480;-74
2021/08/29 00:00:42;;;;;;;6.37;4.53;;;;;;;10.37;100.00;95965.09;1044113;28;20020;-73
2021/08/29 00:01:12;;;;;;;6.77;4.90;;;;;;;10.37;100.00;95965.09;1039937;28;20013;-73
2021/08/29 00:01:42;;;;;;;5.50;4.70;;;;;;;10.41;100.00;95969.66;1044131;28;20075;-73
2021/08/29 00:02:13;;;;;;;6.30;5.17;;;;;;;10.39;100.00;95969.13;1044038;28;20456;-73
2021/08/29 00:02:43;;;;;;;6.50;4.70;;;;;;;10.43;100.00;95969.38;1044027;28;20044;-73
2021/08/29 00:03:14;;;;;;;8.07;4.80;;;;;;;10.46;100.00;95968.03;1044426;28;20013;-73
2021/08/29 00:03:44;;;;;;;5.90;4.40;;;;;;;10.45;100.00;95966.44;1039908;28;20028;-73
2021/08/29 00:04:15;;;;;;;7.33;5.63;;;;;;;10.45;100.00;95964.56;1039697;28;20382;-73
2021/08/29 00:04:45;;;;;;;7.60;5.37;;;;;;;10.46;100.00;95970.72;1035629;28;20034;-73
2021/08/29 00:05:15;;;;;;;7.33;4.70;;;;;;;10.47;100.00;95972.31;1035909;28;20014;-73
2021/08/29 00:05:46;;;;;;;7.93;4.40;;;;;;;10.46;100.00;95965.38;1035808;28;20387;-73
2021/08/29 00:06:16;;;;;;;5.43;4.60;;;;;;;10.48;100.00;95969.38;1035821;28;20026;-73
2021/08/29 00:06:47;;;;;;;6.60;4.53;;;;;;;10.46;100.00;95960.81;1035909;28;20379;-73
2021/08/29 00:07:17;;;;;;;6.03;4.73;;;;;;;10.47;100.00;95964.28;1035934;28;20022;-73
2021/08/29 00:07:47;;;;;;;7.37;4.90;;;;;;;10.46;100.00;95968.03;1039901;28;20021;-73
2021/08/29 00:08:18;;;;;;;7.00;4.50;;;;;;;10.43;100.00;95966.69;1039953;28;20022;-73
2021/08/29 00:08:48;;;;;;;6.93;4.80;;;;;;;10.46;100.00;95966.16;1044033;28;20021;-73
2021/08/29 00:09:19;;;;;;;5.37;4.20;;;;;;;10.45;100.00;95963.78;1039981;28;20025;-73
2021/08/29 00:09:49;;;;;;;5.70;4.80;;;;;;;10.45;100.00;95974.47;1039833;28;20029;-74
2021/08/29 00:10:19;;;;;;;7.53;5.33;;;;;;;10.48;100.00;95973.91;1039875;28;20017;-73
2021/08/29 00:10:50;;;;;;;5.73;4.40;;;;;;;10.49;100.00;95965.63;1039929;28;20017;-73
2021/08/29 00:11:20;;;;;;;6.33;4.67;;;;;;;10.45;100.00;95961.09;1035855;28;20022;-73
2021/08/29 00:11:51;;;;;;;6.67;4.60;;;;;;;10.45;100.00;95964.56;1040016;28;20072;-73
2021/08/29 00:12:21;;;;;;;6.43;5.00;;;;;;;10.48;100.00;95960.53;1039973;28;20029;-73
2021/08/29 00:12:52;;;;;;;6.70;5.33;;;;;;;10.47;100.00;95959.75;1035807;28;20060;-73
2021/08/29 00:13:22;;;;;;;6.60;5.30;;;;;;;10.50;100.00;95961.09;1035828;28;20041;-73
2021/08/29 00:13:52;;;;;;;6.10;4.27;;;;;;;10.52;100.00;95956.28;1035875;28;20025;-73
2021/08/29 00:14:23;;;;;;;5.80;4.60;;;;;;;10.52;100.00;95965.09;1035621;28;20022;-74
2021/08/29 00:14:53;;;;;;;5.73;4.50;;;;;;;10.53;100.00;95966.69;1035962;28;20018;-74
2021/08/29 00:15:24;;;;;;;6.43;4.50;;;;;;;10.53;100.00;95968.56;1039911;28;20071;-73
2021/08/29 00:15:54;;;;;;;6.60;4.90;;;;;;;10.56;100.00;95968.81;1035810;28;20018;-73
2021/08/29 00:16:24;;;;;;;7.43;4.47;;;;;;;10.54;100.00;95964.81;1031756;28;20022;-73
2021/08/29 00:16:55;;;;;;;9.13;4.73;;;;;;;10.54;100.00;95964.81;1035879;28;20054;-73
2021/08/29 00:17:25;;;;;;;5.93;4.53;;;;;;;10.56;100.00;95962.69;1035753;28;20033;-73
2021/08/29 00:17:56;;;;;;;8.23;4.80;;;;;;;10.54;100.00;95964.81;1028040;28;20034;-73
2021/08/29 00:18:26;;;;;;;4.90;4.30;;;;;;;10.54;100.00;95959.47;1031758;28;20030;-73
2021/08/29 00:18:57;;;;;;;6.57;4.27;;;;;;;10.56;100.00;95960.81;1031960;28;20018;-73
2021/08/29 00:19:27;;;;;;;6.23;4.50;;;;;;;10.55;100.00;95958.41;1031900;28;20097;-73
2021/08/29 00:19:58;;;;;;;6.50;5.00;;;;;;;10.52;100.00;95958.94;1035690;28;20025;-73
2021/08/29 00:20:28;;;;;;;6.80;4.93;;;;;;;10.52;100.00;95959.75;1031719;28;20045;-73
2021/08/29 00:20:58;;;;;;;5.47;4.37;;;;;;;10.53;100.00;95960.53;1031930;28;20041;-73
2021/08/29 00:21:29;;;;;;;5.50;3.93;;;;;;;10.53;100.00;95956.00;1039900;28;20462;-73
2021/08/29 00:21:59;;;;;;;6.63;4.27;;;;;;;10.53;100.00;95956.00;1040089;28;20022;-73
2021/08/29 00:22:30;;;;;;;7.33;4.80;;;;;;;10.49;100.00;95954.13;1044023;28;20025;-73
2021/08/29 00:23:00;;;;;;;6.67;4.87;;;;;;;10.49;100.00;95957.59;1039844;28;20018;-73
2021/08/29 00:23:30;;;;;;;5.40;4.30;;;;;;;10.51;100.00;95950.13;1039915;28;20025;-73
2021/08/29 00:24:01;;;;;;;5.40;4.20;;;;;;;10.54;100.00;95956.78;1035861;28;20013;-73
2021/08/29 00:24:31;;;;;;;6.53;4.80;;;;;;;10.56;100.00;95954.66;1035418;28;20430;-73
2021/08/29 00:25:02;;;;;;;5.80;4.53;;;;;;;10.53;100.00;95947.97;1039259;28;20017;-73
2021/08/29 00:25:32;;;;;;;5.73;4.40;;;;;;;10.55;100.00;95956.53;1031666;28;20031;-73
2021/08/29 00:26:03;;;;;;;6.50;4.53;;;;;;;10.54;100.00;95951.44;1031932;28;20026;-73
2021/08/29 00:26:33;;;;;;;6.50;5.07;;;;;;;10.54;100.00;95944.22;1035578;28;20017;-73
2021/08/29 00:27:04;;;;;;;5.60;4.50;;;;;;;10.51;100.00;95946.66;1035958;28;20026;-73
2021/08/29 00:27:34;;;;;;;8.23;4.40;;;;;;;10.50;100.00;95951.22;1043941;28;20020;-73
2021/08/29 00:28:04;;;;;;;7.70;4.83;;;;;;;10.49;100.00;95954.94;1044006;28;20040;-73
2021/08/29 00:28:35;;;;;;;6.50;4.43;;;;;;;10.50;100.00;95950.41;1039960;28;20148;-73
2021/08/29 00:29:05;;;;;;;7.37;4.60;;;;;;;10.51;100.00;95952.00;1035820;28;20029;-73
2021/08/29 00:29:37;;;;;;;6.43;4.80;;;;;;;10.53;100.00;95949.84;1035756;28;20022;-74
2021/08/29 00:30:08;;;;;;;6.53;4.30;;;;;;;10.54;100.00;95952.25;1031937;28;20093;-73
2021/08/29 00:30:38;;;;;;;6.15;4.72;;;;;;;10.55;100.00;95945.06;1036024;28;20072;-73
2021/08/29 00:31:08;;;;;;;6.63;4.50;;;;;;;10.58;100.00;95949.84;1035734;28;20021;-73
2021/08/29 00:31:39;;;;;;;5.60;4.30;;;;;;;10.57;100.00;95945.56;1027980;28;20031;-73
2021/08/29 00:32:09;;;;;;;5.57;4.57;;;;;;;10.54;100.00;95946.91;1035856;28;20387;-73
2021/08/29 00:32:40;;;;;;;6.20;4.80;;;;;;;10.54;100.00;95938.09;1035695;28;20621;-74
2021/08/29 00:33:11;;;;;;;8.70;4.30;;;;;;;10.52;100.00;95946.38;1031794;28;20045;-74
2021/08/29 00:33:41;;;;;;;8.33;4.77;;;;;;;10.52;100.00;95949.06;1035799;28;20084;-73
2021/08/29 00:34:11;;;;;;;7.47;4.60;;;;;;;10.52;100.00;95946.38;1035858;28;20082;-73
2021/08/29 00:34:42;;;;;;;5.70;4.90;;;;;;;10.56;100.00;95943.97;1031489;28;20446;-73
2021/08/29 00:35:12;;;;;;;5.73;4.83;;;;;;;10.58;100.00;95941.81;1031826;28;20026;-73
2021/08/29 00:35:43;;;;;;;6.20;5.00;;;;;;;10.56;100.00;95950.13;1035815;28;20033;-73
2021/08/29 00:36:13;;;;;;;5.90;4.70;;;;;;;10.56;100.00;95946.66;1039927;28;20025;-73
2021/08/29 00:36:43;;;;;;;6.43;4.70;;;;;;;10.58;100.00;95939.16;1035690;28;20391;-73
2021/08/29 00:37:14;;;;;;;6.60;4.20;;;;;;;10.57;100.00;95940.22;1035885;28;20026;-73
2021/08/29 00:37:44;;;;;;;6.00;4.80;;;;;;;10.61;100.00;95938.63;1039860;28;20021;-73
2021/08/29 00:38:15;;;;;;;7.30;4.53;;;;;;;10.62;100.00;95938.34;1035884;28;20037;-73
2021/08/29 00:38:45;;;;;;;7.63;5.10;;;;;;;10.65;100.00;95940.50;1039899;28;20084;-73
2021/08/29 00:39:17;;;;;;;6.47;4.90;;;;;;;10.67;100.00;95938.31;1035862;28;20061;-73
2021/08/29 00:39:47;;;;;;;5.97;4.45;;;;;;;10.64;100.00;95938.88;1031901;28;20026;-73
2021/08/29 00:40:18;;;;;;;7.97;5.47;;;;;;;10.60;100.00;95943.16;1035828;28;20038;-74
2021/08/29 00:40:49;;;;;;;6.27;4.63;;;;;;;10.60;100.00;95939.69;1036114;28;20051;-74
2021/08/29 00:41:19;;;;;;;5.50;4.67;;;;;;;10.62;100.00;95937.53;1035963;28;20104;-73
2021/08/29 00:41:49;;;;;;;7.33;4.57;;;;;;;10.57;100.00;95941.03;1035756;28;20060;-73
2021/08/29 00:42:20;;;;;;;7.63;5.00;;;;;;;10.57;100.00;95946.38;1031736;28;20475;-73
2021/08/29 00:42:50;;;;;;;5.90;4.50;;;;;;;10.58;100.00;95942.63;1031756;28;20569;-73
2021/08/29 00:43:21;;;;;;;5.23;4.60;;;;;;;10.59;100.00;95948.75;1035418;28;20592;-74
2021/08/29 00:43:52;;;;;;;5.25;4.45;;;;;;;10.63;100.00;95937.25;1043976;28;20064;-73
2021/08/29 00:44:22;;;;;;;8.57;5.17;;;;;;;10.61;100.00;95936.75;1044395;28;20036;-73
2021/08/29 00:44:53;;;;;;;7.53;4.70;;;;;;;10.63;100.00;95939.94;1044363;28;20079;-73
2021/08/29 00:45:24;;;;;;;7.57;4.93;;;;;;;10.67;100.00;95937.53;1035666;28;20033;-73
2021/08/29 00:45:55;;;;;;;5.88;4.65;;;;;;;10.61;100.00;95941.28;1031623;28;20033;-73
2021/08/29 00:46:25;;;;;;;6.57;4.10;;;;;;;10.61;100.00;95946.63;1031738;28;20033;-74
2021/08/29 00:46:56;;;;;;;5.50;4.33;;;;;;;10.61;100.00;95936.75;1028271;28;20106;-73
2021/08/29 00:47:26;;;;;;;6.87;4.57;;;;;;;10.61;100.00;95946.63;1035904;28;20028;-74
2021/08/29 00:47:58;;;;;;;6.40;4.40;;;;;;;10.63;100.00;95939.13;1031625;28;20022;-73
2021/08/29 00:48:28;;;;;;;5.80;4.85;;;;;;;10.60;100.00;95940.50;1024217;28;20137;-74
2021/08/29 00:48:59;;;;;;;7.87;4.70;;;;;;;10.60;100.00;95939.69;1031831;28;20485;-73
2021/08/29 00:49:29;;;;;;;5.97;4.53;;;;;;;10.55;100.00;95937.03;1023863;28;20481;-73
2021/08/29 00:50:02;;;;;;;5.77;4.90;;;;;;;10.59;100.00;95943.41;1027861;28;20023;-73
2021/08/29 00:50:33;;;;;;;9.00;5.28;;;;;;;10.60;100.00;95940.50;1031733;28;20054;-73
2021/08/29 00:51:03;;;;;;;9.60;5.60;;;;;;;10.59;100.00;95941.53;1032543;28;20022;-73
2021/08/29 00:51:34;;;;;;;5.23;4.30;;;;;;;10.63;100.00;95939.94;1032150;28;20468;-73
2021/08/29 00:52:04;;;;;;;5.13;4.10;;;;;;;10.63;100.00;95947.97;1031670;28;20010;-73
2021/08/29 00:52:39;;;;;;;6.13;4.67;;;;;;;10.65;100.00;95939.69;1032069;28;20023;-73
2021/08/29 00:53:10;;;;;;;5.13;4.18;;;;;;;10.65;100.00;95942.38;1033127;28;20114;-73
2021/08/29 00:53:51;;;;;;;5.50;4.63;;;;;;;10.67;100.00;95951.69;1033943;28;20029;-74
2021/08/29 00:54:23;;;;;;;9.50;5.05;;;;;;;10.65;100.00;95945.03;1040526;28;20021;-73
2021/08/29 00:54:54;;;;;;;5.63;4.53;;;;;;;10.64;100.00;95943.41;1040577;28;20083;-73
2021/08/29 00:55:24;;;;;;;5.20;4.30;;;;;;;10.65;100.00;95945.03;1034147;28;20073;-74
2021/08/29 00:55:54;;;;;;;6.17;4.60;;;;;;;10.63;100.00;95945.28;1036568;28;20068;-73
2021/08/29 00:56:25;;;;;;;5.33;4.23;;;;;;;10.61;100.00;95944.75;1036396;28;20056;-73
2021/08/29 00:56:56;;;;;;;5.83;4.93;;;;;;;10.64;100.00;95940.75;1036786;28;20422;-73
2021/08/29 00:57:26;;;;;;;5.97;4.77;;;;;;;10.64;100.00;95943.41;1040581;28;20009;-73
2021/08/29 00:57:57;;;;;;;6.30;4.60;;;;;;;10.60;100.00;95945.03;1040630;28;20018;-73
2021/08/29 00:58:27;;;;;;;7.27;4.80;;;;;;;10.63;100.00;95939.13;1036367;28;20018;-74
2021/08/29 00:58:58;;;;;;;7.50;4.60;;;;;;;10.62;100.00;95940.22;1036587;28;20025;-74
2021/08/29 00:59:28;;;;;;;5.30;4.43;;;;;;;10.60;100.00;95945.84;1032485;28;20020;-73
2021/08/29 00:59:59;;;;;;;5.93;4.77;;;;;;;10.60;100.00;95945.84;1036546;28;20014;-74
2021/08/29 01:00:31;;;;;;;6.47;4.70;;;;;;;10.58;100.00;95944.50;1036425;28;20018;-73
2021/08/29 01:01:01;;;;;;;6.55;5.00;;;;;;;10.62;100.00;95940.22;1032384;28;20057;-73
2021/08/29 01:01:42;;;;;;;6.97;4.87;;;;;;;10.64;100.00;95941.53;1028418;28;20447;-74
2021/08/29 01:02:13;;;;;;;;;;;;;;;10.62;100.00;95942.88;1024946;29;20030;-73
2021/08/29 01:02:43;;;;;;;5.30;4.40;;;;;;;10.59;100.00;95948.75;1027236;28;20008;-73
2021/08/29 01:03:20;;;;;;;8.10;4.60;;;;;;;10.61;100.00;95942.09;1033766;28;20464;-74
2021/08/29 01:03:53;;;;;;;6.57;4.68;;;;;;;10.61;100.00;95941.28;1032515;28;20113;-73
2021/08/29 01:04:25;;;;;;;8.65;4.85;;;;;;;10.61;100.00;95943.97;1029680;28;20506;-73
2021/08/29 01:05:05;;;;;;;7.10;5.20;;;;;;;10.62;100.00;95948.22;1032451;28;20028;-74
2021/08/29 01:05:39;;;;;;;6.53;4.85;;;;;;;10.62;100.00;95948.22;1036484;28;20014;-74
2021/08/29 01:06:31;;;;;;;8.50;4.90;;;;;;;10.59;100.00;95941.53;1038772;28;20506;-73
2021/08/29 01:07:05;;;;;;;6.57;4.95;;;;;;;10.65;100.00;95948.50;1040617;28;20021;-73
2021/08/29 01:07:51;;;;;;;7.75;5.28;;;;;;;10.64;100.00;95944.22;1036456;28;20104;-73
2021/08/29 01:08:22;;;;;;;6.60;5.30;;;;;;;10.66;100.00;95942.09;1036468;28;20033;-73
2021/08/29 01:08:56;;;;;;;6.47;5.00;;;;;;;10.67;100.00;95940.19;1027164;28;20030;-74
2021/08/29 01:09:26;;;;;;;8.32;4.97;;;;;;;10.64;100.00;95944.22;1024307;29;20037;-73
2021/08/29 01:10:01;;;;;;;7.23;5.00;;;;;;;10.68;100.00;95941.81;1024199;29;20030;-74
2021/08/29 01:10:46;;;;;;;6.20;4.90;;;;;;;10.71;100.00;95946.63;1028115;28;20034;-74
2021/08/29 01:11:24;;;;;;;6.30;5.20;;;;;;;10.70;100.00;95941.53;1028411;28;20027;-73
2021/08/29 01:11:54;;;;;;;7.07;5.22;;;;;;;10.71;100.00;95946.63;1032352;28;20030;-73
2021/08/29 01:12:26;;;;;;;10.57;5.30;;;;;;;10.74;100.00;95946.06;1032461;28;20022;-73
2021/08/29 01:12:57;;;;;;;6.05;4.82;;;;;;;10.75;100.00;95942.34;1024203;29;20027;-73
2021/08/29 01:13:31;;;;;;;6.90;5.20;;;;;;;10.75;100.00;95939.66;1032121;28;20014;-74
2021/08/29 01:14:05;;;;;;;6.57;5.28;;;;;;;10.68;100.00;95941.81;1032439;28;20030;-74
2021/08/29 01:14:36;;;;;;;5.90;4.97;;;;;;;10.68;100.00;95944.47;1028337;28;20031;-73
2021/08/29 01:15:06;;;;;;;8.93;5.67;;;;;;;10.70;100.00;95944.19;1028301;28;20109;-73
2021/08/29 01:15:37;;;;;;;7.30;5.33;;;;;;;10.71;100.00;95941.28;1024425;29;20015;-73
2021/08/29 01:16:08;;;;;;;8.17;5.07;;;;;;;10.71;100.00;95938.59;1024847;28;20030;-73
2021/08/29 01:16:38;;;;;;;7.43;5.63;;;;;;;10.68;100.00;95947.16;1028843;28;20023;-75
2021/08/29 01:17:09;;;;;;;8.90;5.30;;;;;;;10.71;100.00;95948.50;1032456;28;20489;-74
2021/08/29 01:17:39;;;;;;;8.50;5.40;;;;;;;10.71;100.00;95943.16;1036392;28;20029;-73
2021/08/29 01:18:10;;;;;;;7.03;5.53;;;;;;;10.67;100.00;95945.56;1036367;28;20483;-74
2021/08/29 01:18:41;;;;;;;6.60;5.47;;;;;;;10.70;100.00;95944.19;1036437;28;20041;-74
2021/08/29 01:19:15;;;;;;;9.13;5.30;;;;;;;10.70;100.00;95947.69;1032344;28;20520;-73
2021/08/29 01:20:07;;;;;;;8.05;5.55;;;;;;;10.72;100.00;95950.88;1033418;28;20033;-74
2021/08/29 01:21:00;;;;;;;7.32;5.75;;;;;;;10.69;100.00;95943.41;1040170;28;20554;-74
2021/08/29 01:21:35;;;;;;;7.63;5.75;;;;;;;10.71;100.00;95949.28;1036361;28;20081;-74
2021/08/29 01:22:06;;;;;;;9.07;5.30;;;;;;;10.73;100.00;95949.81;1036414;28;20022;-74
2021/08/29 01:22:37;;;;;;;6.70;5.70;;;;;;;10.73;100.00;95941.78;1040188;28;20025;-74
2021/08/29 01:23:07;;;;;;;7.65;5.45;;;;;;;10.70;100.00;95945.03;1037751;28;20030;-74
2021/08/29 01:23:39;;;;;;;7.73;5.60;;;;;;;10.67;100.00;95946.34;1036198;28;20028;-74
2021/08/29 01:24:12;;;;;;;8.93;5.65;;;;;;;10.64;100.00;95946.88;1032380;28;20026;-74
2021/08/29 01:24:42;;;;;;;8.35;5.70;;;;;;;10.65;100.00;95945.84;1024346;29;20023;-74
2021/08/29 01:25:17;;;;;;;7.17;5.83;;;;;;;10.65;100.00;95950.38;1028320;28;20372;-74
2021/08/29 01:25:51;;;;;;;12.95;8.45;;;;;;;10.65;100.00;95948.50;1029120;28;20105;-74
2021/08/29 01:26:31;;;;;;;9.35;6.68;;;;;;;10.64;100.00;95943.41;1034758;28;20018;-74
2021/08/29 01:27:13;;;;;;;8.35;6.13;;;;;;;10.64;100.00;95946.88;1040591;28;20054;-74
2021/08/29 01:27:48;;;;;;;18.58;6.60;;;;;;;10.67;100.00;95951.69;1039769;28;20410;-74
2021/08/29 01:28:18;;;;;;;7.95;6.35;;;;;;;10.67;100.00;95940.19;1039539;28;20152;-74
2021/08/29 01:28:52;;;;;;;9.80;6.37;;;;;;;10.70;100.00;95945.03;1032426;28;20147;-74
2021/08/29 01:29:29;;;;;;;10.50;6.30;;;;;;;10.71;100.00;95948.50;1028268;28;20026;-74
2021/08/29 01:29:59;;;;;;;8.02;6.20;;;;;;;10.71;100.00;95946.63;1032345;28;20022;-74
2021/08/29 01:30:30;;;;;;;8.83;6.27;;;;;;;10.70;100.00;95950.38;1032366;28;20045;-74
2021/08/29 01:31:00;;;;;;;8.37;6.03;;;;;;;10.73;100.00;95943.66;1028326;28;20482;-75
2021/08/29 01:31:31;;;;;;;6.53;5.53;;;;;;;10.72;100.00;95944.75;1028279;28;20022;-74
2021/08/29 01:32:04;;;;;;;6.95;5.57;;;;;;;10.75;100.00;95947.69;1032217;28;20018;-74
2021/08/29 01:32:34;;;;;;;6.28;5.35;;;;;;;10.74;100.00;95946.06;1024220;28;20020;-74
2021/08/29 01:33:07;;;;;;;8.13;5.80;;;;;;;10.77;100.00;95940.19;1028093;28;20026;-74
2021/08/29 01:33:37;;;;;;;10.98;5.65;;;;;;;10.79;100.00;95951.38;1028216;28;20027;-74
2021/08/29 01:34:09;;;;;;;7.73;6.10;;;;;;;10.76;100.00;95946.59;1028640;28;20015;-74
2021/08/29 01:34:39;;;;;;;7.65;5.72;;;;;;;10.73;100.00;95941.78;1024829;28;20015;-74
2021/08/29 01:35:10;;;;;;;8.00;6.37;;;;;;;10.70;100.00;95944.19;1024504;28;20011;-74
2021/08/29 01:35:41;;;;;;;7.75;5.35;;;;;;;10.71;100.00;95940.47;1032233;28;20030;-74
2021/08/29 01:36:12;;;;;;;7.67;6.03;;;;;;;10.71;100.00;95943.94;1028410;28;20436;-73
2021/08/29 01:36:44;;;;;;;7.50;6.03;;;;;;;10.76;100.00;95941.25;1032283;28;20006;-74
2021/08/29 01:37:15;;;;;;;8.13;6.38;;;;;;;10.80;100.00;95941.50;1024201;28;20015;-74
2021/08/29 01:37:45;;;;;;;7.10;5.80;;;;;;;10.80;100.00;95950.34;1024227;29;20421;-74
2021/08/29 01:38:16;;;;;;;7.43;5.80;;;;;;;10.82;100.00;95942.84;1024162;29;20012;-74
2021/08/29 01:38:46;;;;;;;7.60;5.90;;;;;;;10.84;100.00;95951.38;1032311;28;20017;-74
2021/08/29 01:39:16;;;;;;;8.00;6.10;;;;;;;10.83;100.00;95944.44;1036370;28;20010;-74
2021/08/29 01:39:48;;;;;;;9.20;5.87;;;;;;;10.83;100.00;95938.28;1028393;28;20080;-75
2021/08/29 01:40:19;;;;;;;7.63;6.05;;;;;;;10.84;100.00;95935.34;1020517;29;20050;-74
2021/08/29 01:40:49;;;;;;;10.23;6.57;;;;;;;10.89;100.00;95932.63;1024231;29;20090;-74
2021/08/29 01:41:21;;;;;;;7.20;5.80;;;;;;;10.89;100.00;95937.19;1024357;29;20392;-75
2021/08/29 01:41:51;;;;;;;7.57;6.60;;;;;;;10.89;100.00;95939.88;1028335;28;20019;-75
2021/08/29 01:42:22;;;;;;;9.73;6.03;;;;;;;10.86;100.00;95940.44;1020235;29;20023;-75
2021/08/29 01:42:52;;;;;;;7.77;5.90;;;;;;;10.88;100.00;95933.72;1024291;29;20027;-75
2021/08/29 01:43:22;;;;;;;8.23;5.77;;;;;;;10.92;100.00;95939.34;1028309;28;20026;-75
2021/08/29 01:43:53;;;;;;;7.33;5.73;;;;;;;10.92;100.00;95932.09;1028402;28;20018;-74
2021/08/29 01:44:23;;;;;;;8.43;6.33;;;;;;;10.88;100.00;95939.06;1028223;28;20019;-74
2021/08/29 01:44:54;;;;;;;7.10;5.60;;;;;;;10.89;100.00;95940.66;1032281;28;20023;-74
2021/08/29 01:45:24;;;;;;;8.17;6.00;;;;;;;10.87;100.00;95939.34;1028181;28;20077;-74
2021/08/29 01:45:55;;;;;;;8.10;6.27;;;;;;;10.86;100.00;95937.75;1028095;28;20069;-74
2021/08/29 01:46:25;;;;;;;7.37;5.83;;;;;;;10.85;100.00;95946.81;1032332;28;20072;-74
2021/08/29 01:46:56;;;;;;;9.57;6.20;;;;;;;10.86;100.00;95935.09;1028362;28;20101;-74
2021/08/29 01:47:26;;;;;;;7.37;5.93;;;;;;;10.87;100.00;95940.16;1024207;29;20465;-74
2021/08/29 01:47:57;;;;;;;6.50;5.50;;;;;;;10.91;100.00;95943.88;1028498;28;20030;-74
2021/08/29 01:48:27;;;;;;;6.77;5.87;;;;;;;10.90;100.00;95936.94;1028254;28;20031;-74
2021/08/29 01:48:57;;;;;;;8.63;5.70;;;;;;;10.91;100.00;95940.41;1028241;28;20066;-74
2021/08/29 01:49:28;;;;;;;7.03;5.73;;;;;;;10.88;100.00;95939.06;1028530;28;20062;-75
2021/08/29 01:49:59;;;;;;;8.03;6.33;;;;;;;10.89;100.00;95948.69;1036393;28;20108;-74
2021/08/29 01:50:29;;;;;;;9.55;5.75;;;;;;;10.87;100.00;95940.16;1036379;28;20511;-74
2021/08/29 01:51:01;;;;;;;7.87;6.03;;;;;;;10.90;100.00;95936.94;1040359;28;20029;-74
2021/08/29 01:51:31;;;;;;;7.53;6.00;;;;;;;10.89;100.00;95943.34;1040415;28;20028;-74
2021/08/29 01:52:02;;;;;;;8.90;6.03;;;;;;;10.91;100.00;95943.88;1036371;28;20490;-74
2021/08/29 01:52:33;;;;;;;8.03;6.17;;;;;;;10.90;100.00;95939.63;1036264;28;20053;-74
2021/08/29 01:53:04;;;;;;;8.37;6.07;;;;;;;10.87;100.00;95924.09;1036380;28;20486;-74
2021/08/29 01:53:35;;;;;;;7.15;5.95;;;;;;;10.83;100.00;95944.44;1032184;28;20168;-74
2021/08/29 01:54:05;;;;;;;7.20;6.25;;;;;;;10.86;100.00;95935.88;1028006;28;20073;-74
2021/08/29 01:54:36;;;;;;;7.83;5.53;;;;;;;10.87;100.00;95937.47;1028425;28;20058;-74
2021/08/29 01:55:07;;;;;;;9.38;6.50;;;;;;;10.90;100.00;95938.78;1028482;28;20023;-74
2021/08/29 01:55:38;;;;;;;9.40;6.40;;;;;;;10.84;100.00;95932.66;1028666;28;20019;-74
2021/08/29 01:56:08;;;;;;;10.70;6.70;;;;;;;10.81;100.00;95941.25;1032448;28;20053;-74
2021/08/29 01:57:00;;;;;;;9.90;6.63;;;;;;;10.84;100.00;95932.66;1032280;28;20057;-74
2021/08/29 01:57:31;;;;;;;7.70;6.25;;;;;;;10.85;100.00;95930.78;1031040;28;20371;-74
2021/08/29 01:58:01;;;;;;;8.10;6.67;;;;;;;10.86;100.00;95937.75;1027153;28;20023;-74
2021/08/29 01:58:31;;;;;;;8.07;6.53;;;;;;;10.84;100.00;95929.97;1024239;29;20023;-75
2021/08/29 01:59:02;;;;;;;7.70;6.17;;;;;;;10.82;100.00;95936.69;1024283;28;20488;-74
2021/08/29 01:59:32;;;;;;;8.23;6.50;;;;;;;10.78;100.00;95932.97;1032136;28;20018;-74
2021/08/29 02:00:03;;;;;;;7.70;6.30;;;;;;;10.78;100.00;95940.97;1032383;28;20018;-74
2021/08/29 02:00:33;;;;;;;7.60;5.93;;;;;;;10.75;100.00;95942.34;1040372;28;20104;-74
2021/08/29 02:01:11;;;;;;;12.43;6.90;;;;;;;10.74;100.00;95943.38;1032142;28;20403;-75
2021/08/29 02:01:43;;;;;;;10.07;6.88;;;;;;;10.75;100.00;95945.00;1025160;28;20102;-74
2021/08/29 02:02:14;;;;;;;9.48;6.63;;;;;;;10.77;100.00;95944.72;1028244;28;20015;-75
2021/08/29 02:02:44;;;;;;;8.23;6.75;;;;;;;10.74;100.00;95940.72;1030711;28;20033;-75
2021/08/29 02:03:14;;;;;;;8.33;6.63;;;;;;;10.71;100.00;95935.94;1028939;28;20027;-75
2021/08/29 02:03:45;;;;;;;8.50;6.27;;;;;;;10.77;100.00;95942.06;1036277;28;20037;-75
2021/08/29 02:04:15;;;;;;;9.47;6.97;;;;;;;10.75;100.00;95941.50;1019680;29;20019;-75
2021/08/29 02:04:46;;;;;;;10.77;6.87;;;;;;;10.75;100.00;95941.50;1024129;29;20401;-75
2021/08/29 02:05:16;;;;;;;8.43;6.50;;;;;;;10.75;100.00;95945.00;1028256;28;20467;-76
2021/08/29 02:05:48;;;;;;;7.77;6.60;;;;;;;10.72;100.00;95937.53;1028372;28;20030;-76
2021/08/29 02:06:31;;;;;;;9.38;7.50;;;;;;;10.72;100.00;95942.06;1032372;28;20022;-75
2021/08/29 02:07:24;;;;;;;9.70;7.20;;;;;;;10.76;100.00;95937.78;1028108;28;20058;-75
2021/08/29 02:07:54;;;;;;;11.10;7.50;;;;;;;10.74;100.00;95946.06;1025255;28;20030;-75
2021/08/29 02:08:25;;;;;;;9.57;7.10;;;;;;;10.79;100.00;95937.22;1030076;28;20506;-75
2021/08/29 02:09:00;;;;;;;9.00;7.00;;;;;;;10.80;100.00;95939.66;1032179;28;20456;-74
2021/08/29 02:09:31;;;;;;;11.57;7.70;;;;;;;10.79;100.00;95940.69;1028195;28;20019;-75
2021/08/29 02:10:04;;;;;;;15.37;11.00;;;;;;;10.78;100.00;95931.09;1028135;28;20014;-75
2021/08/29 02:10:34;;;;;;;9.48;7.38;;;;;;;10.72;100.00;95940.19;1029265;28;20468;-74
2021/08/29 02:11:05;;;;;;;9.90;7.10;;;;;;;10.75;100.00;95938.84;1028600;28;20011;-74
2021/08/29 02:11:40;;;;;;;8.23;7.07;;;;;;;10.76;100.00;95941.25;1029243;28;20018;-74
2021/08/29 02:12:11;;;;;;;8.32;7.07;;;;;;;10.79;100.00;95943.38;1028133;28;20585;-74
2021/08/29 02:12:47;;;;;;;9.60;7.80;;;;;;;10.79;100.00;95931.88;1024126;29;20079;-74
2021/08/29 02:13:20;;;;;;;8.63;6.72;;;;;;;10.80;100.00;95938.81;1027984;28;20110;-74
2021/08/29 02:13:52;;;;;;;8.18;7.03;;;;;;;10.75;100.00;95930.81;1028166;28;20080;-75
2021/08/29 02:14:29;;;;;;;9.95;6.85;;;;;;;10.79;100.00;95924.66;1028211;28;20450;-74
2021/08/29 02:15:02;;;;;;;9.23;6.65;;;;;;;10.80;100.00;95925.44;1029595;28;20011;-74
2021/08/29 02:15:35;;;;;;;7.88;6.53;;;;;;;10.83;100.00;95928.38;1028127;28;20038;-74
2021/08/29 02:16:07;;;;;;;9.00;6.95;;;;;;;10.80;100.00;95925.44;1028172;28;20448;-74
2021/08/29 02:16:40;;;;;;;10.07;6.80;;;;;;;10.82;100.00;95926.78;1032163;28;20109;-75
2021/08/29 02:17:11;;;;;;;8.35;6.78;;;;;;;10.80;100.00;95923.59;1028049;28;20011;-74
2021/08/29 02:17:42;;;;;;;9.80;6.95;;;;;;;10.82;100.00;95926.78;1024081;29;20023;-74
2021/08/29 02:18:12;;;;;;;10.63;7.27;;;;;;;10.80;100.00;95931.63;1024640;28;20019;-74
2021/08/29 02:18:43;;;;;;;8.67;7.20;;;;;;;10.77;100.00;95913.44;1029201;28;20022;-74
2021/08/29 02:19:14;;;;;;;8.27;6.93;;;;;;;10.77;100.00;95934.84;1036167;28;20018;-74
2021/08/29 02:19:44;;;;;;;9.20;6.83;;;;;;;10.75;100.00;95930.81;1028258;28;20103;-74
2021/08/29 02:20:17;;;;;;;9.60;7.23;;;;;;;10.77;100.00;95932.16;1032722;28;20045;-74
2021/08/29 02:20:48;;;;;;;10.98;7.35;;;;;;;10.81;100.00;95930.53;1024078;28;20126;-74
2021/08/29 02:21:18;;;;;;;8.63;6.57;;;;;;;10.81;100.00;95925.19;1024059;28;20090;-74
2021/08/29 02:21:49;;;;;;;8.63;6.70;;;;;;;10.78;100.00;95928.41;1028034;28;20038;-74
2021/08/29 02:22:20;;;;;;;12.23;7.37;;;;;;;10.76;100.00;95927.09;1024121;29;20023;-74
2021/08/29 02:22:51;;;;;;;11.03;7.53;;;;;;;10.76;100.00;95927.09;1032237;28;20258;-74
2021/08/29 02:23:23;;;;;;;10.00;7.93;;;;;;;10.79;100.00;95926.53;1032106;28;20026;-74
2021/08/29 02:23:54;;;;;;;10.27;7.05;;;;;;;10.77;100.00;95926.00;1036188;28;20022;-74
2021/08/29 02:24:24;;;;;;;10.73;8.00;;;;;;;10.77;100.00;95921.47;1036173;28;20471;-74
2021/08/29 02:24:55;;;;;;;11.33;7.53;;;;;;;10.72;100.00;95918.81;1028469;28;20030;-74
2021/08/29 02:25:25;;;;;;;9.73;8.07;;;;;;;10.74;100.00;95922.00;1028393;28;20567;-74
2021/08/29 02:25:56;;;;;;;12.03;7.63;;;;;;;10.75;100.00;95922.78;1028115;28;20018;-74
2021/08/29 02:26:26;;;;;;;9.57;7.30;;;;;;;10.75;100.00;95922.78;1028176;28;20380;-74
2021/08/29 02:26:57;;;;;;;10.13;8.23;;;;;;;10.73;100.00;95917.72;1028251;28;20030;-74
2021/08/29 02:27:27;;;;;;;10.53;7.53;;;;;;;10.75;100.00;95920.13;1032083;28;20034;-74